| Time | Avg. Air Temp | Dew Point | Avg. Rel Humidity | Avg. 2 Min Wind Speed | Max Gust Velocity | MGV Time | MGV Direction | Avg. Spot Wind Velocity |
|---|---|---|---|---|---|---|---|---|
| 2026-09-04 05:20:00 | 0° C | 0° C | 99% | 20 km/h | 23 km/h | 05:16:00 | NE | 20 km/h |
| 04:20:00 | 0° C | 0° C | 100% | 10 km/h | 13 km/h | 04:18:00 | E | 11 km/h |
| 03:20:00 | 0° C | -0° C | 100% | 12 km/h | 12 km/h | 03:17:00 | NE | 12 km/h |
| 02:20:00 | 0° C | -0° C | 100% | 9 km/h | 10 km/h | 02:16:00 | SE | 9 km/h |
| 01:20:00 | -0° C | -0° C | 100% | 8 km/h | 9 km/h | 01:18:00 | SE | 8 km/h |
| 00:20:00 | -0° C | 0° C | 100% | 7 km/h | 9 km/h | 00:20:00 | S | 6 km/h |
| 23:20:00 | 0° C | 0° C | 100% | 13 km/h | 14 km/h | 23:20:00 | SE | 13 km/h |
| 22:20:00 | 0° C | 0° C | 100% | 11 km/h | 12 km/h | 22:20:00 | S | 11 km/h |
| 21:20:00 | 1° C | 1° C | 100% | 14 km/h | 18 km/h | 21:16:00 | S | 15 km/h |
| 20:20:00 | 1° C | 1° C | 100% | 18 km/h | 21 km/h | 20:18:00 | SE | 18 km/h |
| 19:20:00 | 1° C | 1° C | 100% | 11 km/h | 14 km/h | 19:20:00 | S | 10 km/h |
| 18:20:00 | 2° C | 2° C | 100% | 11 km/h | 14 km/h | 18:20:00 | S | 8 km/h |
| 17:20:00 | 2° C | 2° C | 100% | 4 km/h | 8 km/h | 17:17:00 | SE | 5 km/h |
| 16:20:00 | 3° C | 3° C | 100% | 5 km/h | 8 km/h | 16:19:00 | SE | 4 km/h |
| 15:20:00 | 2° C | 2° C | 100% | 7 km/h | 13 km/h | 15:17:00 | S | 7 km/h |
| 14:20:00 | 1° C | 1° C | 100% | 6 km/h | 16 km/h | 14:17:00 | S | 11 km/h |
| 13:20:00 | 1° C | 1° C | 100% | 12 km/h | 15 km/h | 13:19:00 | S | 11 km/h |
| 12:20:00 | 1° C | 1° C | 100% | 12 km/h | 18 km/h | 12:20:00 | S | 15 km/h |
| 11:20:00 | 1° C | 1° C | 100% | 19 km/h | 22 km/h | 11:20:00 | S | 19 km/h |
| 10:20:00 | 2° C | 2° C | 100% | 6 km/h | 13 km/h | 10:16:00 | S | 8 km/h |
| 09:20:00 | 1° C | 1° C | 100% | 18 km/h | 19 km/h | 09:20:00 | S | 17 km/h |
| 08:20:00 | 3° C | 3° C | 100% | 1 km/h | 5 km/h | 08:18:00 | E | 1 km/h |
| 07:20:00 | 3° C | 3° C | 100% | 10 km/h | 12 km/h | 07:19:00 | E | 9 km/h |
| 06:20:00 | 3° C | 3° C | 100% | 4 km/h | 8 km/h | 06:16:00 | SE | 5 km/h |
Subpeak Weather
| Time | Avg. Air Temp | Dew Point | Avg. Rel Humidity | Avg. 2 Min Wind Speed | Max Gust Velocity | MGV Time | MGV Direction | Avg. Spot Wind Velocity |
|---|---|---|---|---|---|---|---|---|
| 2026-09-04 05:20:00 | 0° C | 0° C | 99% | 20 km/h | 23 km/h | 05:16:00 | NE | 20 km/h |
| 05:15:00 | 0° C | 0° C | 99% | 23 km/h | 25 km/h | 05:11:00 | NE | 23 km/h |
| 05:10:00 | 0° C | 0° C | 100% | 26 km/h | 28 km/h | 05:08:00 | NE | 27 km/h |
| 05:05:00 | 0° C | 0° C | 100% | 26 km/h | 28 km/h | 05:02:00 | NE | 26 km/h |
| 05:00:00 | 0° C | 0° C | 100% | 27 km/h | 30 km/h | 04:58:00 | NE | 28 km/h |
| 04:55:00 | 0° C | -0° C | 100% | 26 km/h | 29 km/h | 04:55:00 | NE | 24 km/h |
| 04:50:00 | 0° C | 0° C | 100% | 23 km/h | 26 km/h | 04:46:00 | NE | 22 km/h |
| 04:45:00 | 0° C | 0° C | 100% | 20 km/h | 23 km/h | 04:45:00 | NE | 18 km/h |
| 04:40:00 | 0° C | 0° C | 100% | 17 km/h | 21 km/h | 04:36:00 | NE | 17 km/h |
| 04:35:00 | 0° C | 0° C | 100% | 20 km/h | 22 km/h | 04:34:00 | NE | 20 km/h |
| 04:30:00 | 0° C | 0° C | 100% | 19 km/h | 20 km/h | 04:30:00 | NE | 17 km/h |
| 04:25:00 | 0° C | 0° C | 100% | 12 km/h | 13 km/h | 04:25:00 | E | 11 km/h |
| 04:20:00 | 0° C | 0° C | 100% | 10 km/h | 13 km/h | 04:18:00 | E | 11 km/h |




